sensor_id;sensor_type;location;lat;lon;timestamp;pressure;altitude;pressure_sealevel;temperature;humidity
9421;BME280;4749;51.398;5.466;2023-03-24T00:01:07;99736.59;;;13.01;100.00
9421;BME280;4749;51.398;5.466;2023-03-24T00:03:34;99722.50;;;13.02;100.00
9421;BME280;4749;51.398;5.466;2023-03-24T00:06:04;99721.59;;;13.05;100.00
9421;BME280;4749;51.398;5.466;2023-03-24T00:08:34;99720.69;;;13.06;100.00
9421;BME280;4749;51.398;5.466;2023-03-24T00:11:07;99718.75;;;13.12;100.00
9421;BME280;4749;51.398;5.466;2023-03-24T00:13:35;99703.78;;;13.13;100.00
9421;BME280;4749;51.398;5.466;2023-03-24T00:16:10;99710.78;;;13.14;100.00
9421;BME280;4749;51.398;5.466;2023-03-24T00:18:39;99702.97;;;13.09;100.00
9421;BME280;4749;51.398;5.466;2023-03-24T00:21:07;99706.44;;;13.13;100.00
9421;BME280;4749;51.398;5.466;2023-03-24T00:23:35;99695.88;;;13.13;100.00
9421;BME280;4749;51.398;5.466;2023-03-24T00:26:11;99700.25;;;13.14;100.00
9421;BME280;4749;51.398;5.466;2023-03-24T00:28:47;99690.59;;;13.13;100.00
9421;BME280;4749;51.398;5.466;2023-03-24T00:31:16;99705.47;;;13.15;100.00
9421;BME280;4749;51.398;5.466;2023-03-24T00:33:46;99688.88;;;13.10;100.00
9421;BME280;4749;51.398;5.466;2023-03-24T00:36:19;99689.75;;;13.11;100.00
9421;BME280;4749;51.398;5.466;2023-03-24T00:38:47;99692.31;;;13.14;100.00
9421;BME280;4749;51.398;5.466;2023-03-24T00:41:14;99680.75;;;13.19;100.00
9421;BME280;4749;51.398;5.466;2023-03-24T00:43:48;99680.75;;;13.21;100.00
9421;BME280;4749;51.398;5.466;2023-03-24T00:46:17;99687.66;;;13.25;100.00
9421;BME280;4749;51.398;5.466;2023-03-24T00:49:00;99670.91;;;13.26;100.00
9421;BME280;4749;51.398;5.466;2023-03-24T00:51:39;99668.16;;;13.31;100.00
9421;BME280;4749;51.398;5.466;2023-03-24T00:54:09;99667.34;;;13.27;100.00
9421;BME280;4749;51.398;5.466;2023-03-24T00:56:38;99662.06;;;13.27;100.00
9421;BME280;4749;51.398;5.466;2023-03-24T00:59:07;99662.94;;;13.29;100.00
9421;BME280;4749;51.398;5.466;2023-03-24T01:01:37;99653.22;;;13.30;100.00
9421;BME280;4749;51.398;5.466;2023-03-24T01:04:07;99651.41;;;13.32;100.00
9421;BME280;4749;51.398;5.466;2023-03-24T01:06:36;99648.78;;;13.32;100.00
9421;BME280;4749;51.398;5.466;2023-03-24T01:09:04;99642.63;;;13.31;100.00
9421;BME280;4749;51.398;5.466;2023-03-24T01:11:37;99641.75;;;13.31;100.00
9421;BME280;4749;51.398;5.466;2023-03-24T01:14:04;99647.03;;;13.31;100.00
9421;BME280;4749;51.398;5.466;2023-03-24T01:16:32;99634.75;;;13.30;100.00
9421;BME280;4749;51.398;5.466;2023-03-24T01:18:59;99638.25;;;13.30;100.00
9421;BME280;4749;51.398;5.466;2023-03-24T01:21:26;99635.63;;;13.30;100.00
9421;BME280;4749;51.398;5.466;2023-03-24T01:23:53;99636.56;;;13.28;100.00
9421;BME280;4749;51.398;5.466;2023-03-24T01:26:20;99625.97;;;13.29;100.00
9421;BME280;4749;51.398;5.466;2023-03-24T01:28:48;99620.72;;;13.28;100.00
9421;BME280;4749;51.398;5.466;2023-03-24T01:31:15;99622.50;;;13.27;100.00
9421;BME280;4749;51.398;5.466;2023-03-24T01:33:43;99619.94;;;13.24;100.00
9421;BME280;4749;51.398;5.466;2023-03-24T01:36:10;99614.63;;;13.26;100.00
9421;BME280;4749;51.398;5.466;2023-03-24T01:38:38;99609.28;;;13.29;100.00
9421;BME280;4749;51.398;5.466;2023-03-24T01:41:06;99609.28;;;13.27;100.00
9421;BME280;4749;51.398;5.466;2023-03-24T01:43:34;99612.84;;;13.26;100.00
9421;BME280;4749;51.398;5.466;2023-03-24T01:46:15;99597.91;;;13.25;100.00
9421;BME280;4749;51.398;5.466;2023-03-24T01:49:00;99594.41;;;13.24;100.00
9421;BME280;4749;51.398;5.466;2023-03-24T01:51:39;99601.41;;;13.26;100.00
9421;BME280;4749;51.398;5.466;2023-03-24T01:56:44;99592.66;;;13.25;100.00
9421;BME280;4749;51.398;5.466;2023-03-24T01:59:20;99588.19;;;13.27;100.00
9421;BME280;4749;51.398;5.466;2023-03-24T02:01:49;99575.84;;;13.28;100.00
9421;BME280;4749;51.398;5.466;2023-03-24T02:04:57;99581.09;;;13.29;100.00
9421;BME280;4749;51.398;5.466;2023-03-24T02:07:33;99561.78;;;13.27;100.00
9421;BME280;4749;51.398;5.466;2023-03-24T02:10:10;99560.13;;;13.24;100.00
9421;BME280;4749;51.398;5.466;2023-03-24T02:12:43;99562.75;;;13.24;100.00
9421;BME280;4749;51.398;5.466;2023-03-24T02:15:13;99570.72;;;13.23;100.00
9421;BME280;4749;51.398;5.466;2023-03-24T02:21:20;99568.84;;;13.27;100.00
9421;BME280;4749;51.398;5.466;2023-03-24T02:48:39;99590.56;;;13.36;100.00
9421;BME280;4749;51.398;5.466;2023-03-24T02:51:29;99590.75;;;13.30;100.00
9421;BME280;4749;51.398;5.466;2023-03-24T02:54:15;99591.72;;;13.26;100.00
9421;BME280;4749;51.398;5.466;2023-03-24T02:59:42;99606.59;;;13.30;100.00
9421;BME280;4749;51.398;5.466;2023-03-24T03:02:19;99618.94;;;13.30;100.00
9421;BME280;4749;51.398;5.466;2023-03-24T03:05:05;99623.25;;;13.32;100.00
9421;BME280;4749;51.398;5.466;2023-03-24T03:07:34;99623.25;;;13.32;100.00
9421;BME280;4749;51.398;5.466;2023-03-24T03:10:44;99629.38;;;13.33;100.00
9421;BME280;4749;51.398;5.466;2023-03-24T03:13:30;99623.34;;;13.29;100.00
9421;BME280;4749;51.398;5.466;2023-03-24T03:16:08;99633.91;;;13.28;100.00
9421;BME280;4749;51.398;5.466;2023-03-24T03:18:48;99642.78;;;13.25;100.00
9421;BME280;4749;51.398;5.466;2023-03-24T03:21:22;99663.03;;;13.24;100.00
9421;BME280;4749;51.398;5.466;2023-03-24T03:23:57;99653.47;;;13.20;100.00
9421;BME280;4749;51.398;5.466;2023-03-24T03:26:25;99654.44;;;13.16;100.00
9421;BME280;4749;51.398;5.466;2023-03-24T03:29:00;99668.69;;;13.09;100.00
9421;BME280;4749;51.398;5.466;2023-03-24T03:31:46;99671.50;;;13.03;100.00
9421;BME280;4749;51.398;5.466;2023-03-24T03:35:21;99695.50;;;12.92;100.00
9421;BME280;4749;51.398;5.466;2023-03-24T03:37:46;99715.00;;;12.85;100.00
9421;BME280;4749;51.398;5.466;2023-03-24T03:40:21;99715.13;;;12.81;100.00
9421;BME280;4749;51.398;5.466;2023-03-24T03:42:50;99727.50;;;12.79;100.00
9421;BME280;4749;51.398;5.466;2023-03-24T03:45:18;99711.81;;;12.73;100.00
9421;BME280;4749;51.398;5.466;2023-03-24T03:47:45;99729.41;;;12.72;100.00
9421;BME280;4749;51.398;5.466;2023-03-24T03:50:13;99725.09;;;12.68;100.00
9421;BME280;4749;51.398;5.466;2023-03-24T03:52:41;99738.44;;;12.62;100.00
9421;BME280;4749;51.398;5.466;2023-03-24T03:55:11;99733.31;;;12.56;100.00
9421;BME280;4749;51.398;5.466;2023-03-24T03:57:39;99748.34;;;12.51;100.00
9421;BME280;4749;51.398;5.466;2023-03-24T04:00:12;99755.69;;;12.38;100.00
9421;BME280;4749;51.398;5.466;2023-03-24T04:05:59;99757.16;;;12.09;100.00
9421;BME280;4749;51.398;5.466;2023-03-24T04:17:36;99789.44;;;11.73;100.00
9421;BME280;4749;51.398;5.466;2023-03-24T04:27:04;99824.66;;;11.69;100.00
9421;BME280;4749;51.398;5.466;2023-03-24T04:32:56;99815.78;;;11.73;100.00
9421;BME280;4749;51.398;5.466;2023-03-24T04:38:03;99835.09;;;11.72;100.00
9421;BME280;4749;51.398;5.466;2023-03-24T04:40:34;99835.09;;;11.72;100.00
9421;BME280;4749;51.398;5.466;2023-03-24T04:43:04;99835.06;;;11.73;100.00
9421;BME280;4749;51.398;5.466;2023-03-24T04:45:33;99841.28;;;11.71;100.00
9421;BME280;4749;51.398;5.466;2023-03-24T04:48:05;99848.28;;;11.72;100.00
9421;BME280;4749;51.398;5.466;2023-03-24T04:50:39;99844.84;;;11.67;100.00
9421;BME280;4749;51.398;5.466;2023-03-24T04:53:07;99847.59;;;11.61;100.00
9421;BME280;4749;51.398;5.466;2023-03-24T04:58:30;99853.00;;;11.53;100.00
9421;BME280;4749;51.398;5.466;2023-03-24T05:00:57;99859.16;;;11.52;100.00
9421;BME280;4749;51.398;5.466;2023-03-24T05:03:25;99861.78;;;11.52;100.00
9421;BME280;4749;51.398;5.466;2023-03-24T05:05:52;99866.16;;;11.53;100.00
9421;BME280;4749;51.398;5.466;2023-03-24T05:08:20;99872.31;;;11.52;100.00
9421;BME280;4749;51.398;5.466;2023-03-24T05:10:47;99879.31;;;11.53;100.00
9421;BME280;4749;51.398;5.466;2023-03-24T05:13:15;99874.16;;;11.47;100.00
9421;BME280;4749;51.398;5.466;2023-03-24T05:15:42;99881.22;;;11.42;100.00
9421;BME280;4749;51.398;5.466;2023-03-24T05:18:10;99880.47;;;11.37;100.00
9421;BME280;4749;51.398;5.466;2023-03-24T05:20:37;99876.09;;;11.34;100.00
9421;BME280;4749;51.398;5.466;2023-03-24T05:23:04;99885.81;;;11.31;100.00
9421;BME280;4749;51.398;5.466;2023-03-24T05:25:31;99886.72;;;11.28;100.00
9421;BME280;4749;51.398;5.466;2023-03-24T05:27:59;99885.03;;;11.24;100.00
9421;BME280;4749;51.398;5.466;2023-03-24T05:30:26;99886.84;;;11.20;100.00
9421;BME280;4749;51.398;5.466;2023-03-24T05:32:53;99891.28;;;11.15;100.00
9421;BME280;4749;51.398;5.466;2023-03-24T05:35:21;99889.63;;;11.10;100.00
9421;BME280;4749;51.398;5.466;2023-03-24T05:37:49;99894.03;;;11.08;100.00
9421;BME280;4749;51.398;5.466;2023-03-24T05:40:17;99890.59;;;11.04;100.00
9421;BME280;4749;51.398;5.466;2023-03-24T05:42:44;99905.53;;;11.02;100.00
9421;BME280;4749;51.398;5.466;2023-03-24T05:45:11;99909.03;;;11.03;100.00
9421;BME280;4749;51.398;5.466;2023-03-24T05:47:38;99919.50;;;11.06;100.00
9421;BME280;4749;51.398;5.466;2023-03-24T05:50:06;99918.59;;;11.07;100.00
9421;BME280;4749;51.398;5.466;2023-03-24T05:52:33;99923.88;;;11.07;100.00
9421;BME280;4749;51.398;5.466;2023-03-24T05:55:01;99923.84;;;11.08;100.00
9421;BME280;4749;51.398;5.466;2023-03-24T05:57:29;99931.69;;;11.11;100.00
9421;BME280;4749;51.398;5.466;2023-03-24T05:59:56;99926.38;;;11.14;100.00
9421;BME280;4749;51.398;5.466;2023-03-24T06:02:24;99932.47;;;11.19;100.00
9421;BME280;4749;51.398;5.466;2023-03-24T06:04:51;99922.72;;;11.24;100.00
9421;BME280;4749;51.398;5.466;2023-03-24T06:07:18;99926.19;;;11.28;100.00
9421;BME280;4749;51.398;5.466;2023-03-24T06:09:45;99927.91;;;11.31;100.00
9421;BME280;4749;51.398;5.466;2023-03-24T06:12:17;99925.22;;;11.34;100.00
9421;BME280;4749;51.398;5.466;2023-03-24T06:14:44;99926.97;;;11.36;100.00
9421;BME280;4749;51.398;5.466;2023-03-24T06:17:11;99931.28;;;11.39;100.00
9421;BME280;4749;51.398;5.466;2023-03-24T06:19:42;99935.59;;;11.44;100.00
9421;BME280;4749;51.398;5.466;2023-03-24T06:22:19;99926.84;;;11.42;100.00
9421;BME280;4749;51.398;5.466;2023-03-24T06:24:47;99947.00;;;11.43;100.00
9421;BME280;4749;51.398;5.466;2023-03-24T06:27:16;99939.94;;;11.47;100.00
9421;BME280;4749;51.398;5.466;2023-03-24T06:29:44;99946.91;;;11.49;100.00
9421;BME280;4749;51.398;5.466;2023-03-24T06:32:11;99946.03;;;11.52;100.00
9421;BME280;4749;51.398;5.466;2023-03-24T06:34:38;99941.63;;;11.52;100.00
9421;BME280;4749;51.398;5.466;2023-03-24T06:37:06;99949.47;;;11.55;100.00
9421;BME280;4749;51.398;5.466;2023-03-24T06:39:33;99958.16;;;11.59;100.00
9421;BME280;4749;51.398;5.466;2023-03-24T06:42:01;99952.00;;;11.62;100.00
9421;BME280;4749;51.398;5.466;2023-03-24T06:44:28;99955.50;;;11.62;100.00
9421;BME280;4749;51.398;5.466;2023-03-24T06:46:55;99962.53;;;11.60;100.00
9421;BME280;4749;51.398;5.466;2023-03-24T06:49:22;99954.66;;;11.59;100.00
9421;BME280;4749;51.398;5.466;2023-03-24T06:51:49;99963.44;;;11.61;100.00
9421;BME280;4749;51.398;5.466;2023-03-24T06:54:17;99960.72;;;11.65;100.00
9421;BME280;4749;51.398;5.466;2023-03-24T06:56:44;99951.00;;;11.70;100.00
9421;BME280;4749;51.398;5.466;2023-03-24T06:59:11;99961.38;;;11.79;100.00
9421;BME280;4749;51.398;5.466;2023-03-24T07:01:39;99956.84;;;11.89;100.00
9421;BME280;4749;51.398;5.466;2023-03-24T07:04:06;99961.13;;;11.96;100.00
9421;BME280;4749;51.398;5.466;2023-03-24T07:06:33;99964.56;;;12.00;100.00
9421;BME280;4749;51.398;5.466;2023-03-24T07:09:17;99950.50;;;12.02;100.00
9421;BME280;4749;51.398;5.466;2023-03-24T07:11:45;99971.47;;;12.07;100.00
9421;BME280;4749;51.398;5.466;2023-03-24T07:14:12;99961.72;;;12.12;100.00
9421;BME280;4749;51.398;5.466;2023-03-24T07:16:39;99988.00;;;12.15;100.00
9421;BME280;4749;51.398;5.466;2023-03-24T07:19:06;99973.97;;;12.15;100.00
9421;BME280;4749;51.398;5.466;2023-03-24T07:21:34;99986.19;;;12.20;100.00
9421;BME280;4749;51.398;5.466;2023-03-24T07:24:01;99979.94;;;12.24;100.00
9421;BME280;4749;51.398;5.466;2023-03-24T07:26:28;99980.75;;;12.29;100.00
9421;BME280;4749;51.398;5.466;2023-03-24T07:28:56;99985.00;;;12.35;100.00
9421;BME280;4749;51.398;5.466;2023-03-24T07:31:23;99980.56;;;12.38;100.00
9421;BME280;4749;51.398;5.466;2023-03-24T07:33:51;100002.41;;;12.47;100.00
9421;BME280;4749;51.398;5.466;2023-03-24T07:36:18;100000.47;;;12.55;100.00
9421;BME280;4749;51.398;5.466;2023-03-24T07:38:45;100002.94;;;12.64;100.00
9421;BME280;4749;51.398;5.466;2023-03-24T07:41:12;99995.78;;;12.71;100.00
9421;BME280;4749;51.398;5.466;2023-03-24T07:43:40;99991.19;;;12.80;100.00
9421;BME280;4749;51.398;5.466;2023-03-24T07:46:07;99990.16;;;12.89;100.00
9421;BME280;4749;51.398;5.466;2023-03-24T07:48:36;99982.97;;;12.95;100.00
9421;BME280;4749;51.398;5.466;2023-03-24T07:51:03;99988.97;;;13.02;100.00
9421;BME280;4749;51.398;5.466;2023-03-24T07:53:34;99995.81;;;13.12;100.00
9421;BME280;4749;51.398;5.466;2023-03-24T07:56:01;100002.72;;;13.21;100.00
9421;BME280;4749;51.398;5.466;2023-03-24T07:58:29;100001.59;;;13.31;100.00
9421;BME280;4749;51.398;5.466;2023-03-24T08:00:56;100026.81;;;13.46;100.00
9421;BME280;4749;51.398;5.466;2023-03-24T08:03:23;100024.66;;;13.62;100.00
9421;BME280;4749;51.398;5.466;2023-03-24T08:05:54;100028.56;;;13.84;100.00
9421;BME280;4749;51.398;5.466;2023-03-24T08:08:22;100038.44;;;14.13;100.00
9421;BME280;4749;51.398;5.466;2023-03-24T08:10:49;100041.09;;;14.13;100.00
9421;BME280;4749;51.398;5.466;2023-03-24T08:13:16;100031.53;;;14.07;100.00
9421;BME280;4749;51.398;5.466;2023-03-24T08:15:44;100051.34;;;14.25;100.00
9421;BME280;4749;51.398;5.466;2023-03-24T08:18:11;100041.34;;;14.36;100.00
9421;BME280;4749;51.398;5.466;2023-03-24T08:20:38;100045.56;;;14.47;100.00
9421;BME280;4749;51.398;5.466;2023-03-24T08:23:05;100052.13;;;14.64;100.00
9421;BME280;4749;51.398;5.466;2023-03-24T08:25:34;100050.31;;;14.67;100.00
9421;BME280;4749;51.398;5.466;2023-03-24T08:28:04;100046.13;;;14.58;100.00
9421;BME280;4749;51.398;5.466;2023-03-24T08:30:32;100056.25;;;14.41;100.00
9421;BME280;4749;51.398;5.466;2023-03-24T08:33:00;100050.84;;;14.47;100.00
9421;BME280;4749;51.398;5.466;2023-03-24T08:35:33;100057.91;;;14.79;100.00
9421;BME280;4749;51.398;5.466;2023-03-24T08:38:06;100075.97;;;14.97;100.00
9421;BME280;4749;51.398;5.466;2023-03-24T08:40:36;100075.19;;;14.92;100.00
9421;BME280;4749;51.398;5.466;2023-03-24T08:43:07;100061.56;;;15.07;100.00
9421;BME280;4749;51.398;5.466;2023-03-24T08:45:35;100076.41;;;15.42;100.00
9421;BME280;4749;51.398;5.466;2023-03-24T08:48:06;100077.66;;;15.60;100.00
9421;BME280;4749;51.398;5.466;2023-03-24T08:50:38;100069.63;;;15.63;100.00
9421;BME280;4749;51.398;5.466;2023-03-24T08:53:07;100076.84;;;15.88;100.00
9421;BME280;4749;51.398;5.466;2023-03-24T08:55:35;100083.31;;;16.07;100.00
9421;BME280;4749;51.398;5.466;2023-03-24T08:58:04;100079.81;;;16.05;100.00
9421;BME280;4749;51.398;5.466;2023-03-24T09:00:31;100071.88;;;16.05;100.00
9421;BME280;4749;51.398;5.466;2023-03-24T09:02:58;100081.66;;;16.03;100.00
9421;BME280;4749;51.398;5.466;2023-03-24T09:05:27;100094.34;;;15.93;100.00
9421;BME280;4749;51.398;5.466;2023-03-24T09:08:11;100094.22;;;15.98;100.00
9421;BME280;4749;51.398;5.466;2023-03-24T09:10:40;100082.06;;;15.91;100.00
9421;BME280;4749;51.398;5.466;2023-03-24T09:13:08;100086.63;;;15.86;100.00
9421;BME280;4749;51.398;5.466;2023-03-24T09:15:35;100092.22;;;16.04;100.00
9421;BME280;4749;51.398;5.466;2023-03-24T09:18:03;100084.63;;;16.20;100.00
9421;BME280;4749;51.398;5.466;2023-03-24T09:20:30;100099.19;;;16.35;100.00
9421;BME280;4749;51.398;5.466;2023-03-24T09:22:57;100092.34;;;16.28;100.00
9421;BME280;4749;51.398;5.466;2023-03-24T09:25:25;100103.25;;;16.19;100.00
9421;BME280;4749;51.398;5.466;2023-03-24T09:27:52;100090.91;;;16.18;100.00
9421;BME280;4749;51.398;5.466;2023-03-24T09:30:19;100099.97;;;16.11;100.00
9421;BME280;4749;51.398;5.466;2023-03-24T09:32:46;100101.97;;;16.32;100.00
9421;BME280;4749;51.398;5.466;2023-03-24T09:35:14;100106.84;;;16.44;100.00
9421;BME280;4749;51.398;5.466;2023-03-24T09:37:42;100104.06;;;16.47;100.00
9421;BME280;4749;51.398;5.466;2023-03-24T09:40:32;100099.91;;;16.67;100.00
9421;BME280;4749;51.398;5.466;2023-03-24T09:45:55;100108.53;;;16.47;100.00
9421;BME280;4749;51.398;5.466;2023-03-24T09:51:26;100114.25;;;16.87;100.00
9421;BME280;4749;51.398;5.466;2023-03-24T09:54:16;100117.63;;;16.93;100.00
9421;BME280;4749;51.398;5.466;2023-03-24T09:56:46;100123.72;;;16.70;100.00
9421;BME280;4749;51.398;5.466;2023-03-24T10:01:50;100123.50;;;16.48;100.00
9421;BME280;4749;51.398;5.466;2023-03-24T10:04:20;100136.75;;;16.49;100.00
9421;BME280;4749;51.398;5.466;2023-03-24T10:09:35;100132.31;;;16.50;100.00
9421;BME280;4749;51.398;5.466;2023-03-24T10:12:35;100138.13;;;16.61;100.00
9421;BME280;4749;51.398;5.466;2023-03-24T10:18:27;100148.16;;;16.79;100.00
9421;BME280;4749;51.398;5.466;2023-03-24T10:21:18;100148.53;;;16.69;100.00
9421;BME280;4749;51.398;5.466;2023-03-24T10:24:16;100148.53;;;16.69;100.00
9421;BME280;4749;51.398;5.466;2023-03-24T10:27:15;100142.28;;;16.70;100.00
9421;BME280;4749;51.398;5.466;2023-03-24T10:29:47;100137.66;;;16.76;100.00
9421;BME280;4749;51.398;5.466;2023-03-24T10:32:21;100144.31;;;16.88;100.00
9421;BME280;4749;51.398;5.466;2023-03-24T10:34:58;100147.75;;;16.92;100.00
9421;BME280;4749;51.398;5.466;2023-03-24T10:37:28;100151.34;;;16.91;100.00
9421;BME280;4749;51.398;5.466;2023-03-24T10:39:56;100148.09;;;16.81;100.00
9421;BME280;4749;51.398;5.466;2023-03-24T10:42:25;100143.63;;;16.55;100.00
9421;BME280;4749;51.398;5.466;2023-03-24T10:44:54;100140.03;;;16.29;100.00
9421;BME280;4749;51.398;5.466;2023-03-24T10:47:27;100151.19;;;16.41;100.00
9421;BME280;4749;51.398;5.466;2023-03-24T10:50:01;100139.66;;;16.68;100.00
9421;BME280;4749;51.398;5.466;2023-03-24T10:52:44;100146.50;;;17.02;100.00
9421;BME280;4749;51.398;5.466;2023-03-24T10:55:19;100135.41;;;17.15;100.00
9421;BME280;4749;51.398;5.466;2023-03-24T10:57:53;100139.81;;;17.16;100.00
9421;BME280;4749;51.398;5.466;2023-03-24T11:00:28;100141.06;;;17.05;100.00
9421;BME280;4749;51.398;5.466;2023-03-24T11:03:09;100133.03;;;17.08;100.00
9421;BME280;4749;51.398;5.466;2023-03-24T11:05:40;100137.50;;;17.06;100.00
9421;BME280;4749;51.398;5.466;2023-03-24T11:08:38;100135.69;;;17.08;100.00
9421;BME280;4749;51.398;5.466;2023-03-24T11:11:33;100149.22;;;17.00;100.00
9421;BME280;4749;51.398;5.466;2023-03-24T11:14:02;100131.69;;;16.70;100.00
9421;BME280;4749;51.398;5.466;2023-03-24T11:16:37;100138.09;;;17.14;100.00
9421;BME280;4749;51.398;5.466;2023-03-24T11:19:23;100136.72;;;17.52;100.00
9421;BME280;4749;51.398;5.466;2023-03-24T11:21:54;100133.34;;;17.72;100.00
9421;BME280;4749;51.398;5.466;2023-03-24T11:24:24;100135.22;;;17.68;100.00
9421;BME280;4749;51.398;5.466;2023-03-24T11:27:00;100132.94;;;17.34;100.00
9421;BME280;4749;51.398;5.466;2023-03-24T11:29:36;100130.91;;;17.17;100.00
9421;BME280;4749;51.398;5.466;2023-03-24T11:32:17;100141.84;;;17.33;100.00
9421;BME280;4749;51.398;5.466;2023-03-24T11:34:50;100132.19;;;17.79;100.00
9421;BME280;4749;51.398;5.466;2023-03-24T11:37:33;100140.66;;;18.12;100.00
9421;BME280;4749;51.398;5.466;2023-03-24T11:42:59;100138.91;;;18.11;100.00
9421;BME280;4749;51.398;5.466;2023-03-24T11:45:37;100132.34;;;17.51;100.00
9421;BME280;4749;51.398;5.466;2023-03-24T11:48:35;100135.03;;;17.01;100.00
9421;BME280;4749;51.398;5.466;2023-03-24T11:51:09;100132.63;;;16.67;100.00
9421;BME280;4749;51.398;5.466;2023-03-24T11:53:46;100130.78;;;16.43;100.00
9421;BME280;4749;51.398;5.466;2023-03-24T11:56:31;100147.41;;;16.20;100.00
9421;BME280;4749;51.398;5.466;2023-03-24T11:59:36;100145.63;;;15.92;100.00
9421;BME280;4749;51.398;5.466;2023-03-24T12:13:44;100166.28;;;13.67;100.00
9421;BME280;4749;51.398;5.466;2023-03-24T12:19:08;100173.81;;;12.94;100.00
9421;BME280;4749;51.398;5.466;2023-03-24T12:22:21;100155.78;;;12.68;100.00
9421;BME280;4749;51.398;5.466;2023-03-24T12:28:22;100172.00;;;12.44;100.00
9421;BME280;4749;51.398;5.466;2023-03-24T12:39:18;100166.78;;;12.95;100.00
9421;BME280;4749;51.398;5.466;2023-03-24T12:55:45;100157.97;;;13.44;100.00
9421;BME280;4749;51.398;5.466;2023-03-24T12:58:41;100157.53;;;13.65;100.00
9421;BME280;4749;51.398;5.466;2023-03-24T13:01:31;100151.50;;;13.59;100.00
9421;BME280;4749;51.398;5.466;2023-03-24T13:04:23;100160.47;;;13.50;100.00
9421;BME280;4749;51.398;5.466;2023-03-24T13:07:06;100127.00;;;13.52;100.00
9421;BME280;4749;51.398;5.466;2023-03-24T13:09:59;100128.00;;;13.88;100.00
9421;BME280;4749;51.398;5.466;2023-03-24T13:12:53;100120.56;;;14.05;100.00
9421;BME280;4749;51.398;5.466;2023-03-24T13:15:43;100114.84;;;14.24;100.00
9421;BME280;4749;51.398;5.466;2023-03-24T13:18:38;100116.59;;;14.60;100.00
9421;BME280;4749;51.398;5.466;2023-03-24T13:21:15;100113.47;;;14.43;100.00
9421;BME280;4749;51.398;5.466;2023-03-24T13:24:01;100111.31;;;14.23;100.00
9421;BME280;4749;51.398;5.466;2023-03-24T13:38:57;100115.78;;;14.92;100.00
9421;BME280;4749;51.398;5.466;2023-03-24T13:41:24;100123.16;;;15.14;100.00
9421;BME280;4749;51.398;5.466;2023-03-24T13:44:22;100114.78;;;15.28;100.00
9421;BME280;4749;51.398;5.466;2023-03-24T13:49:26;100128.31;;;15.49;100.00
9421;BME280;4749;51.398;5.466;2023-03-24T13:51:56;100128.53;;;15.42;100.00
9421;BME280;4749;51.398;5.466;2023-03-24T13:54:27;100117.88;;;15.43;100.00
9421;BME280;4749;51.398;5.466;2023-03-24T13:57:18;100111.56;;;15.49;100.00
9421;BME280;4749;51.398;5.466;2023-03-24T14:00:24;100115.97;;;15.48;100.00
9421;BME280;4749;51.398;5.466;2023-03-24T14:05:31;100108.22;;;15.73;100.00
9421;BME280;4749;51.398;5.466;2023-03-24T14:15:51;100093.41;;;16.22;100.00
9421;BME280;4749;51.398;5.466;2023-03-24T14:21:02;100097.19;;;16.68;100.00
9421;BME280;4749;51.398;5.466;2023-03-24T14:25:57;100086.69;;;16.39;100.00
9421;BME280;4749;51.398;5.466;2023-03-24T14:33:36;100092.72;;;15.89;100.00
9421;BME280;4749;51.398;5.466;2023-03-24T14:36:05;100095.63;;;15.80;100.00
9421;BME280;4749;51.398;5.466;2023-03-24T14:38:40;100081.47;;;15.81;100.00
9421;BME280;4749;51.398;5.466;2023-03-24T14:41:15;100091.16;;;15.82;100.00
9421;BME280;4749;51.398;5.466;2023-03-24T14:49:14;100087.94;;;15.71;100.00
9421;BME280;4749;51.398;5.466;2023-03-24T14:52:12;100089.66;;;15.73;100.00
9421;BME280;4749;51.398;5.466;2023-03-24T14:54:55;100098.38;;;15.46;100.00
9421;BME280;4749;51.398;5.466;2023-03-24T14:57:33;100091.94;;;15.25;100.00
9421;BME280;4749;51.398;5.466;2023-03-24T15:00:20;100098.84;;;15.31;100.00
9421;BME280;4749;51.398;5.466;2023-03-24T15:02:55;100090.47;;;15.44;100.00
9421;BME280;4749;51.398;5.466;2023-03-24T15:05:28;100094.47;;;15.59;100.00
9421;BME280;4749;51.398;5.466;2023-03-24T15:08:11;100085.50;;;15.65;100.00
9421;BME280;4749;51.398;5.466;2023-03-24T15:13:43;100092.78;;;15.57;100.00
9421;BME280;4749;51.398;5.466;2023-03-24T15:18:54;100075.66;;;15.39;100.00
9421;BME280;4749;51.398;5.466;2023-03-24T15:23:58;100064.31;;;15.03;100.00
9421;BME280;4749;51.398;5.466;2023-03-24T15:26:30;100062.72;;;14.97;100.00
9421;BME280;4749;51.398;5.466;2023-03-24T15:29:05;100053.00;;;14.98;100.00
9421;BME280;4749;51.398;5.466;2023-03-24T15:31:33;100053.78;;;15.01;100.00
9421;BME280;4749;51.398;5.466;2023-03-24T15:36:58;100056.59;;;15.26;100.00
9421;BME280;4749;51.398;5.466;2023-03-24T15:39:37;100061.66;;;15.34;100.00
9421;BME280;4749;51.398;5.466;2023-03-24T15:42:12;100060.66;;;15.38;100.00
9421;BME280;4749;51.398;5.466;2023-03-24T15:44:40;100065.81;;;15.42;100.00
9421;BME280;4749;51.398;5.466;2023-03-24T15:47:36;100056.09;;;15.43;100.00
9421;BME280;4749;51.398;5.466;2023-03-24T15:50:05;100049.88;;;15.44;100.00
9421;BME280;4749;51.398;5.466;2023-03-24T15:52:34;100061.22;;;15.49;100.00
9421;BME280;4749;51.398;5.466;2023-03-24T15:55:27;100054.63;;;15.64;100.00
9421;BME280;4749;51.398;5.466;2023-03-24T15:57:58;100060.25;;;15.52;100.00
9421;BME280;4749;51.398;5.466;2023-03-24T16:00:37;100050.03;;;15.39;100.00
9421;BME280;4749;51.398;5.466;2023-03-24T16:03:05;100047.56;;;15.33;100.00
9421;BME280;4749;51.398;5.466;2023-03-24T16:05:33;100052.31;;;15.22;100.00
9421;BME280;4749;51.398;5.466;2023-03-24T16:08:32;100048.69;;;15.25;100.00
9421;BME280;4749;51.398;5.466;2023-03-24T16:11:08;100042.81;;;15.44;100.00
9421;BME280;4749;51.398;5.466;2023-03-24T16:13:40;100030.63;;;15.68;100.00
9421;BME280;4749;51.398;5.466;2023-03-24T16:18:46;100022.09;;;16.13;100.00
9421;BME280;4749;51.398;5.466;2023-03-24T16:21:21;100024.63;;;16.18;100.00
9421;BME280;4749;51.398;5.466;2023-03-24T16:23:51;100023.25;;;16.06;100.00
9421;BME280;4749;51.398;5.466;2023-03-24T16:26:25;100020.56;;;15.80;100.00
9421;BME280;4749;51.398;5.466;2023-03-24T16:28:54;100020.41;;;15.56;100.00
9421;BME280;4749;51.398;5.466;2023-03-24T16:31:26;100017.34;;;15.40;100.00